sensor_id;sensor_type;location;lat;lon;timestamp;temperature;humidity
43884;DHT22;29544;52.018;5.810;2023-04-29T00:01:46;20.70;52.00
43884;DHT22;29544;52.018;5.810;2023-04-29T00:04:13;20.70;51.30
43884;DHT22;29544;52.018;5.810;2023-04-29T00:06:38;20.80;51.30
43884;DHT22;29544;52.018;5.810;2023-04-29T00:09:04;20.70;51.20
43884;DHT22;29544;52.018;5.810;2023-04-29T00:11:29;20.70;51.20
43884;DHT22;29544;52.018;5.810;2023-04-29T00:13:55;20.70;51.20
43884;DHT22;29544;52.018;5.810;2023-04-29T00:16:21;20.70;51.20
43884;DHT22;29544;52.018;5.810;2023-04-29T00:18:47;20.70;51.30
43884;DHT22;29544;52.018;5.810;2023-04-29T00:21:12;20.70;51.30
43884;DHT22;29544;52.018;5.810;2023-04-29T00:23:38;20.70;51.20
43884;DHT22;29544;52.018;5.810;2023-04-29T00:26:03;20.70;51.20
43884;DHT22;29544;52.018;5.810;2023-04-29T00:28:29;20.80;51.20
43884;DHT22;29544;52.018;5.810;2023-04-29T00:30:55;20.70;51.10
43884;DHT22;29544;52.018;5.810;2023-04-29T00:33:20;20.80;51.10
43884;DHT22;29544;52.018;5.810;2023-04-29T00:35:46;20.70;51.10
43884;DHT22;29544;52.018;5.810;2023-04-29T00:38:11;20.70;51.10
43884;DHT22;29544;52.018;5.810;2023-04-29T00:40:37;20.70;51.10
43884;DHT22;29544;52.018;5.810;2023-04-29T00:43:02;20.70;51.10
43884;DHT22;29544;52.018;5.810;2023-04-29T00:45:28;20.70;51.10
43884;DHT22;29544;52.018;5.810;2023-04-29T00:47:53;20.70;51.20
43884;DHT22;29544;52.018;5.810;2023-04-29T00:50:20;20.70;51.10
43884;DHT22;29544;52.018;5.810;2023-04-29T00:52:46;20.70;51.10
43884;DHT22;29544;52.018;5.810;2023-04-29T00:55:12;20.70;51.00
43884;DHT22;29544;52.018;5.810;2023-04-29T00:57:38;20.70;51.00
43884;DHT22;29544;52.018;5.810;2023-04-29T01:00:04;20.70;51.00
43884;DHT22;29544;52.018;5.810;2023-04-29T01:02:30;20.70;51.00
43884;DHT22;29544;52.018;5.810;2023-04-29T01:04:56;20.70;51.00
43884;DHT22;29544;52.018;5.810;2023-04-29T01:10:08;20.70;51.00
43884;DHT22;29544;52.018;5.810;2023-04-29T01:12:38;20.70;50.90
43884;DHT22;29544;52.018;5.810;2023-04-29T01:15:21;20.70;50.90
43884;DHT22;29544;52.018;5.810;2023-04-29T01:20:20;20.70;50.90
43884;DHT22;29544;52.018;5.810;2023-04-29T01:22:46;20.70;50.90
43884;DHT22;29544;52.018;5.810;2023-04-29T01:25:13;20.70;50.90
43884;DHT22;29544;52.018;5.810;2023-04-29T01:33:03;20.60;50.90
43884;DHT22;29544;52.018;5.810;2023-04-29T01:35:59;20.70;51.00
43884;DHT22;29544;52.018;5.810;2023-04-29T01:38:38;20.70;50.90
43884;DHT22;29544;52.018;5.810;2023-04-29T01:43:36;20.60;50.80
43884;DHT22;29544;52.018;5.810;2023-04-29T01:46:05;20.70;50.90
43884;DHT22;29544;52.018;5.810;2023-04-29T01:48:31;20.70;50.80
43884;DHT22;29544;52.018;5.810;2023-04-29T01:50:57;20.70;50.80
43884;DHT22;29544;52.018;5.810;2023-04-29T01:53:22;20.70;50.90
43884;DHT22;29544;52.018;5.810;2023-04-29T01:55:48;20.60;50.90
43884;DHT22;29544;52.018;5.810;2023-04-29T01:58:13;20.60;50.90
43884;DHT22;29544;52.018;5.810;2023-04-29T02:00:39;20.70;51.00
43884;DHT22;29544;52.018;5.810;2023-04-29T02:03:05;20.70;50.90
43884;DHT22;29544;52.018;5.810;2023-04-29T02:05:30;20.70;50.90
43884;DHT22;29544;52.018;5.810;2023-04-29T02:07:58;20.70;50.90
43884;DHT22;29544;52.018;5.810;2023-04-29T02:10:24;20.70;50.80
43884;DHT22;29544;52.018;5.810;2023-04-29T02:12:50;20.70;50.90
43884;DHT22;29544;52.018;5.810;2023-04-29T02:15:15;20.70;50.80
43884;DHT22;29544;52.018;5.810;2023-04-29T02:17:42;20.70;50.80
43884;DHT22;29544;52.018;5.810;2023-04-29T02:20:07;20.60;50.80
43884;DHT22;29544;52.018;5.810;2023-04-29T02:22:34;20.70;50.90
43884;DHT22;29544;52.018;5.810;2023-04-29T02:25:00;20.70;50.90
43884;DHT22;29544;52.018;5.810;2023-04-29T02:27:25;20.70;50.90
43884;DHT22;29544;52.018;5.810;2023-04-29T02:29:51;20.70;50.80
43884;DHT22;29544;52.018;5.810;2023-04-29T02:32:17;20.70;50.80
43884;DHT22;29544;52.018;5.810;2023-04-29T02:34:44;20.70;50.70
43884;DHT22;29544;52.018;5.810;2023-04-29T02:37:10;20.70;51.40
43884;DHT22;29544;52.018;5.810;2023-04-29T02:39:35;20.70;50.70
43884;DHT22;29544;52.018;5.810;2023-04-29T02:42:01;20.70;50.70
43884;DHT22;29544;52.018;5.810;2023-04-29T02:44:27;20.70;50.70
43884;DHT22;29544;52.018;5.810;2023-04-29T02:46:53;20.60;50.60
43884;DHT22;29544;52.018;5.810;2023-04-29T02:49:18;20.60;50.70
43884;DHT22;29544;52.018;5.810;2023-04-29T02:51:44;20.60;50.80
43884;DHT22;29544;52.018;5.810;2023-04-29T02:54:09;20.70;50.80
43884;DHT22;29544;52.018;5.810;2023-04-29T02:56:36;20.70;50.70
43884;DHT22;29544;52.018;5.810;2023-04-29T02:59:01;20.70;50.70
43884;DHT22;29544;52.018;5.810;2023-04-29T03:01:27;20.70;50.70
43884;DHT22;29544;52.018;5.810;2023-04-29T03:03:53;20.70;50.70
43884;DHT22;29544;52.018;5.810;2023-04-29T03:06:19;20.70;50.60
43884;DHT22;29544;52.018;5.810;2023-04-29T03:08:45;20.70;50.60
43884;DHT22;29544;52.018;5.810;2023-04-29T03:11:10;20.70;50.70
43884;DHT22;29544;52.018;5.810;2023-04-29T03:13:36;20.60;50.60
43884;DHT22;29544;52.018;5.810;2023-04-29T03:16:02;20.60;50.60
43884;DHT22;29544;52.018;5.810;2023-04-29T03:18:28;20.60;50.60
43884;DHT22;29544;52.018;5.810;2023-04-29T03:20:53;20.60;50.70
43884;DHT22;29544;52.018;5.810;2023-04-29T03:23:19;20.60;50.70
43884;DHT22;29544;52.018;5.810;2023-04-29T03:25:45;20.60;50.70
43884;DHT22;29544;52.018;5.810;2023-04-29T03:28:10;20.60;51.30
43884;DHT22;29544;52.018;5.810;2023-04-29T03:30:36;20.70;50.70
43884;DHT22;29544;52.018;5.810;2023-04-29T03:33:01;20.70;50.70
43884;DHT22;29544;52.018;5.810;2023-04-29T03:35:27;20.60;50.60
43884;DHT22;29544;52.018;5.810;2023-04-29T03:37:52;20.60;50.60
43884;DHT22;29544;52.018;5.810;2023-04-29T03:40:18;20.70;50.60
43884;DHT22;29544;52.018;5.810;2023-04-29T03:42:44;20.60;50.60
43884;DHT22;29544;52.018;5.810;2023-04-29T03:45:10;20.60;50.60
43884;DHT22;29544;52.018;5.810;2023-04-29T03:47:38;20.70;50.70
43884;DHT22;29544;52.018;5.810;2023-04-29T03:50:05;20.70;50.60
43884;DHT22;29544;52.018;5.810;2023-04-29T03:52:33;20.70;50.60
43884;DHT22;29544;52.018;5.810;2023-04-29T03:55:01;20.70;50.60
43884;DHT22;29544;52.018;5.810;2023-04-29T03:57:27;20.60;50.50
43884;DHT22;29544;52.018;5.810;2023-04-29T03:59:52;20.60;50.50
43884;DHT22;29544;52.018;5.810;2023-04-29T04:02:18;20.70;50.50
43884;DHT22;29544;52.018;5.810;2023-04-29T04:04:44;20.60;50.50
43884;DHT22;29544;52.018;5.810;2023-04-29T04:07:09;20.60;50.50
43884;DHT22;29544;52.018;5.810;2023-04-29T04:09:39;20.60;50.50
43884;DHT22;29544;52.018;5.810;2023-04-29T04:12:05;20.60;50.50
43884;DHT22;29544;52.018;5.810;2023-04-29T04:14:31;20.60;50.50
43884;DHT22;29544;52.018;5.810;2023-04-29T04:16:56;20.60;50.50
43884;DHT22;29544;52.018;5.810;2023-04-29T04:19:22;20.60;50.50
43884;DHT22;29544;52.018;5.810;2023-04-29T04:21:47;20.60;50.50
43884;DHT22;29544;52.018;5.810;2023-04-29T04:24:13;20.50;50.40
43884;DHT22;29544;52.018;5.810;2023-04-29T04:26:38;20.50;50.50
43884;DHT22;29544;52.018;5.810;2023-04-29T04:29:05;20.50;50.50
43884;DHT22;29544;52.018;5.810;2023-04-29T04:31:31;20.50;50.50
43884;DHT22;29544;52.018;5.810;2023-04-29T04:33:56;20.40;50.50
43884;DHT22;29544;52.018;5.810;2023-04-29T04:36:24;20.40;50.50
43884;DHT22;29544;52.018;5.810;2023-04-29T04:38:49;20.40;51.20
43884;DHT22;29544;52.018;5.810;2023-04-29T04:41:15;20.40;50.60
43884;DHT22;29544;52.018;5.810;2023-04-29T04:43:40;20.40;50.70
43884;DHT22;29544;52.018;5.810;2023-04-29T04:46:10;20.30;50.70
43884;DHT22;29544;52.018;5.810;2023-04-29T04:48:36;20.30;50.70
43884;DHT22;29544;52.018;5.810;2023-04-29T04:51:12;20.30;50.70
43884;DHT22;29544;52.018;5.810;2023-04-29T04:53:38;20.20;50.70
43884;DHT22;29544;52.018;5.810;2023-04-29T04:56:04;20.20;50.70
43884;DHT22;29544;52.018;5.810;2023-04-29T04:58:31;20.20;50.80
43884;DHT22;29544;52.018;5.810;2023-04-29T05:00:57;20.10;50.70
43884;DHT22;29544;52.018;5.810;2023-04-29T05:03:23;20.20;50.90
43884;DHT22;29544;52.018;5.810;2023-04-29T05:05:54;20.10;50.80
43884;DHT22;29544;52.018;5.810;2023-04-29T05:08:20;20.10;50.90
43884;DHT22;29544;52.018;5.810;2023-04-29T05:10:46;20.10;51.00
43884;DHT22;29544;52.018;5.810;2023-04-29T05:13:12;20.00;51.00
43884;DHT22;29544;52.018;5.810;2023-04-29T05:15:37;20.00;51.10
43884;DHT22;29544;52.018;5.810;2023-04-29T05:18:03;20.00;51.10
43884;DHT22;29544;52.018;5.810;2023-04-29T05:20:28;20.00;51.20
43884;DHT22;29544;52.018;5.810;2023-04-29T05:22:54;20.00;51.30
43884;DHT22;29544;52.018;5.810;2023-04-29T05:25:19;20.00;51.30
43884;DHT22;29544;52.018;5.810;2023-04-29T05:27:45;19.90;51.30
43884;DHT22;29544;52.018;5.810;2023-04-29T05:30:11;19.90;51.40
43884;DHT22;29544;52.018;5.810;2023-04-29T05:32:37;19.90;51.40
43884;DHT22;29544;52.018;5.810;2023-04-29T05:35:02;19.80;51.70
43884;DHT22;29544;52.018;5.810;2023-04-29T05:37:28;19.90;51.90
43884;DHT22;29544;52.018;5.810;2023-04-29T05:39:56;19.90;52.00
43884;DHT22;29544;52.018;5.810;2023-04-29T05:42:22;19.90;52.10
43884;DHT22;29544;52.018;5.810;2023-04-29T05:44:48;19.90;52.20
43884;DHT22;29544;52.018;5.810;2023-04-29T05:47:13;19.90;52.20
43884;DHT22;29544;52.018;5.810;2023-04-29T05:49:39;19.80;52.10
43884;DHT22;29544;52.018;5.810;2023-04-29T05:52:05;19.80;52.10
43884;DHT22;29544;52.018;5.810;2023-04-29T05:54:32;19.80;52.10
43884;DHT22;29544;52.018;5.810;2023-04-29T05:56:58;19.70;52.10
43884;DHT22;29544;52.018;5.810;2023-04-29T05:59:29;19.70;52.10
43884;DHT22;29544;52.018;5.810;2023-04-29T06:01:56;19.70;52.10
43884;DHT22;29544;52.018;5.810;2023-04-29T06:04:21;19.70;52.10
43884;DHT22;29544;52.018;5.810;2023-04-29T06:06:47;19.70;52.10
43884;DHT22;29544;52.018;5.810;2023-04-29T06:09:13;19.60;52.10
43884;DHT22;29544;52.018;5.810;2023-04-29T06:11:41;19.60;52.10
43884;DHT22;29544;52.018;5.810;2023-04-29T06:14:08;19.60;52.10
43884;DHT22;29544;52.018;5.810;2023-04-29T06:16:34;19.60;52.10
43884;DHT22;29544;52.018;5.810;2023-04-29T06:19:00;19.60;52.10
43884;DHT22;29544;52.018;5.810;2023-04-29T06:21:26;19.50;52.10
43884;DHT22;29544;52.018;5.810;2023-04-29T06:23:52;19.50;52.10
43884;DHT22;29544;52.018;5.810;2023-04-29T06:26:18;19.50;52.20
43884;DHT22;29544;52.018;5.810;2023-04-29T06:28:45;19.50;52.20
43884;DHT22;29544;52.018;5.810;2023-04-29T06:31:11;19.50;52.20
43884;DHT22;29544;52.018;5.810;2023-04-29T06:33:36;19.50;52.20
43884;DHT22;29544;52.018;5.810;2023-04-29T06:36:02;19.50;52.20
43884;DHT22;29544;52.018;5.810;2023-04-29T06:38:28;19.40;52.20
43884;DHT22;29544;52.018;5.810;2023-04-29T06:40:54;19.40;52.20
43884;DHT22;29544;52.018;5.810;2023-04-29T06:43:20;19.40;52.20
43884;DHT22;29544;52.018;5.810;2023-04-29T06:45:45;19.40;52.20
43884;DHT22;29544;52.018;5.810;2023-04-29T06:48:11;19.40;52.20
43884;DHT22;29544;52.018;5.810;2023-04-29T06:50:37;19.30;52.20
43884;DHT22;29544;52.018;5.810;2023-04-29T06:53:02;19.30;52.20
43884;DHT22;29544;52.018;5.810;2023-04-29T06:55:28;19.30;52.20
43884;DHT22;29544;52.018;5.810;2023-04-29T06:57:53;19.40;52.50
43884;DHT22;29544;52.018;5.810;2023-04-29T07:00:19;19.30;52.50
43884;DHT22;29544;52.018;5.810;2023-04-29T07:02:45;19.40;52.60
43884;DHT22;29544;52.018;5.810;2023-04-29T07:05:11;19.40;52.60
43884;DHT22;29544;52.018;5.810;2023-04-29T07:07:37;19.30;52.60
43884;DHT22;29544;52.018;5.810;2023-04-29T07:10:02;19.40;52.80
43884;DHT22;29544;52.018;5.810;2023-04-29T07:12:28;19.30;52.80
43884;DHT22;29544;52.018;5.810;2023-04-29T07:14:53;19.30;53.00
43884;DHT22;29544;52.018;5.810;2023-04-29T07:17:19;19.40;53.30
43884;DHT22;29544;52.018;5.810;2023-04-29T07:19:45;19.40;53.40
43884;DHT22;29544;52.018;5.810;2023-04-29T07:22:10;19.40;53.40
43884;DHT22;29544;52.018;5.810;2023-04-29T07:24:36;19.30;53.50
43884;DHT22;29544;52.018;5.810;2023-04-29T07:27:02;19.30;53.60
43884;DHT22;29544;52.018;5.810;2023-04-29T07:29:28;19.30;53.60
43884;DHT22;29544;52.018;5.810;2023-04-29T07:31:54;19.30;53.60
43884;DHT22;29544;52.018;5.810;2023-04-29T07:34:19;19.30;53.60
43884;DHT22;29544;52.018;5.810;2023-04-29T07:36:45;19.30;53.60
43884;DHT22;29544;52.018;5.810;2023-04-29T07:39:10;19.30;53.60
43884;DHT22;29544;52.018;5.810;2023-04-29T07:41:36;19.40;53.70
43884;DHT22;29544;52.018;5.810;2023-04-29T07:44:02;19.30;53.60
43884;DHT22;29544;52.018;5.810;2023-04-29T07:46:27;19.30;53.60
43884;DHT22;29544;52.018;5.810;2023-04-29T07:48:53;19.30;53.60
43884;DHT22;29544;52.018;5.810;2023-04-29T07:51:18;19.30;53.60
43884;DHT22;29544;52.018;5.810;2023-04-29T07:53:44;19.30;53.60
43884;DHT22;29544;52.018;5.810;2023-04-29T07:56:09;19.30;53.90
43884;DHT22;29544;52.018;5.810;2023-04-29T07:58:35;19.30;53.70
43884;DHT22;29544;52.018;5.810;2023-04-29T08:01:10;19.30;53.60
43884;DHT22;29544;52.018;5.810;2023-04-29T08:03:36;19.30;53.60
43884;DHT22;29544;52.018;5.810;2023-04-29T08:06:05;19.30;53.60
43884;DHT22;29544;52.018;5.810;2023-04-29T08:08:31;19.30;53.60
43884;DHT22;29544;52.018;5.810;2023-04-29T08:10:57;19.30;53.60
43884;DHT22;29544;52.018;5.810;2023-04-29T08:13:23;19.30;53.50
43884;DHT22;29544;52.018;5.810;2023-04-29T08:15:48;19.30;53.50
43884;DHT22;29544;52.018;5.810;2023-04-29T08:18:14;19.30;53.50
43884;DHT22;29544;52.018;5.810;2023-04-29T08:20:40;19.30;53.50
43884;DHT22;29544;52.018;5.810;2023-04-29T08:23:06;19.30;53.40
43884;DHT22;29544;52.018;5.810;2023-04-29T08:25:31;19.30;53.40
43884;DHT22;29544;52.018;5.810;2023-04-29T08:27:57;19.20;53.40
43884;DHT22;29544;52.018;5.810;2023-04-29T08:30:23;19.20;53.40
43884;DHT22;29544;52.018;5.810;2023-04-29T08:32:49;19.20;53.30
43884;DHT22;29544;52.018;5.810;2023-04-29T08:35:15;19.20;53.20
43884;DHT22;29544;52.018;5.810;2023-04-29T08:37:40;19.20;53.20
43884;DHT22;29544;52.018;5.810;2023-04-29T08:40:07;19.10;53.00
43884;DHT22;29544;52.018;5.810;2023-04-29T08:42:36;19.20;53.10
43884;DHT22;29544;52.018;5.810;2023-04-29T08:45:03;19.10;53.00
43884;DHT22;29544;52.018;5.810;2023-04-29T08:47:28;19.10;53.00
43884;DHT22;29544;52.018;5.810;2023-04-29T08:49:55;19.10;53.00
43884;DHT22;29544;52.018;5.810;2023-04-29T08:52:21;19.10;53.00
43884;DHT22;29544;52.018;5.810;2023-04-29T08:54:46;19.10;53.00
43884;DHT22;29544;52.018;5.810;2023-04-29T08:57:12;19.10;53.00
43884;DHT22;29544;52.018;5.810;2023-04-29T08:59:40;19.00;52.90
43884;DHT22;29544;52.018;5.810;2023-04-29T09:02:11;19.00;53.00
43884;DHT22;29544;52.018;5.810;2023-04-29T09:04:47;19.00;53.00
43884;DHT22;29544;52.018;5.810;2023-04-29T09:07:14;19.00;53.00
43884;DHT22;29544;52.018;5.810;2023-04-29T09:09:41;19.00;53.00
43884;DHT22;29544;52.018;5.810;2023-04-29T09:12:07;19.00;53.00
43884;DHT22;29544;52.018;5.810;2023-04-29T09:14:33;19.00;53.00
43884;DHT22;29544;52.018;5.810;2023-04-29T09:16:59;19.00;52.90
43884;DHT22;29544;52.018;5.810;2023-04-29T09:19:35;18.90;52.90
43884;DHT22;29544;52.018;5.810;2023-04-29T09:22:02;19.00;52.90
43884;DHT22;29544;52.018;5.810;2023-04-29T09:24:29;18.90;52.80
43884;DHT22;29544;52.018;5.810;2023-04-29T09:26:55;18.90;52.80
43884;DHT22;29544;52.018;5.810;2023-04-29T09:29:21;18.90;52.80
43884;DHT22;29544;52.018;5.810;2023-04-29T09:31:47;18.90;52.80
43884;DHT22;29544;52.018;5.810;2023-04-29T09:34:13;18.90;52.80
43884;DHT22;29544;52.018;5.810;2023-04-29T09:36:47;18.90;52.80
43884;DHT22;29544;52.018;5.810;2023-04-29T09:39:17;18.90;52.80
43884;DHT22;29544;52.018;5.810;2023-04-29T09:44:32;18.90;52.90
43884;DHT22;29544;52.018;5.810;2023-04-29T09:47:04;18.90;52.80
43884;DHT22;29544;52.018;5.810;2023-04-29T09:49:38;18.90;53.50
43884;DHT22;29544;52.018;5.810;2023-04-29T09:52:07;18.90;52.90
43884;DHT22;29544;52.018;5.810;2023-04-29T09:54:35;18.90;52.90
43884;DHT22;29544;52.018;5.810;2023-04-29T09:57:02;18.90;52.80
43884;DHT22;29544;52.018;5.810;2023-04-29T09:59:30;18.90;52.80
43884;DHT22;29544;52.018;5.810;2023-04-29T10:01:57;18.80;52.70
43884;DHT22;29544;52.018;5.810;2023-04-29T10:04:25;18.80;52.70
43884;DHT22;29544;52.018;5.810;2023-04-29T10:06:52;18.80;52.70
43884;DHT22;29544;52.018;5.810;2023-04-29T10:09:19;18.80;52.70
43884;DHT22;29544;52.018;5.810;2023-04-29T10:11:49;18.80;52.70
43884;DHT22;29544;52.018;5.810;2023-04-29T10:14:22;18.80;52.70
43884;DHT22;29544;52.018;5.810;2023-04-29T10:17:01;18.80;52.70
43884;DHT22;29544;52.018;5.810;2023-04-29T10:19:39;18.80;52.70
43884;DHT22;29544;52.018;5.810;2023-04-29T10:22:10;18.80;52.70
43884;DHT22;29544;52.018;5.810;2023-04-29T10:24:38;18.80;52.60
43884;DHT22;29544;52.018;5.810;2023-04-29T10:27:06;18.80;52.70
43884;DHT22;29544;52.018;5.810;2023-04-29T10:29:33;18.90;52.70
43884;DHT22;29544;52.018;5.810;2023-04-29T10:32:02;18.80;52.70
43884;DHT22;29544;52.018;5.810;2023-04-29T10:34:29;18.80;52.60
43884;DHT22;29544;52.018;5.810;2023-04-29T10:36:56;18.80;52.70
43884;DHT22;29544;52.018;5.810;2023-04-29T10:39:31;18.80;52.70
43884;DHT22;29544;52.018;5.810;2023-04-29T10:42:01;18.70;52.60
43884;DHT22;29544;52.018;5.810;2023-04-29T10:44:28;18.70;52.50
43884;DHT22;29544;52.018;5.810;2023-04-29T10:47:19;18.70;52.60
43884;DHT22;29544;52.018;5.810;2023-04-29T10:50:01;18.70;52.50
43884;DHT22;29544;52.018;5.810;2023-04-29T10:52:28;18.70;52.50
43884;DHT22;29544;52.018;5.810;2023-04-29T10:55:03;18.70;52.50
43884;DHT22;29544;52.018;5.810;2023-04-29T10:57:29;18.70;52.40
43884;DHT22;29544;52.018;5.810;2023-04-29T10:59:54;18.70;52.30
43884;DHT22;29544;52.018;5.810;2023-04-29T11:02:20;18.70;52.30
43884;DHT22;29544;52.018;5.810;2023-04-29T11:05:05;18.70;52.30
43884;DHT22;29544;52.018;5.810;2023-04-29T11:07:31;18.70;52.30
43884;DHT22;29544;52.018;5.810;2023-04-29T11:09:56;18.70;52.30
43884;DHT22;29544;52.018;5.810;2023-04-29T11:12:22;18.70;52.30
43884;DHT22;29544;52.018;5.810;2023-04-29T11:14:51;18.70;52.30
43884;DHT22;29544;52.018;5.810;2023-04-29T11:17:17;18.60;52.20
43884;DHT22;29544;52.018;5.810;2023-04-29T11:19:50;18.70;52.20
43884;DHT22;29544;52.018;5.810;2023-04-29T11:25:00;18.70;52.20
43884;DHT22;29544;52.018;5.810;2023-04-29T11:27:30;18.70;52.20
43884;DHT22;29544;52.018;5.810;2023-04-29T11:29:57;18.70;52.30
43884;DHT22;29544;52.018;5.810;2023-04-29T11:32:24;18.70;53.00
43884;DHT22;29544;52.018;5.810;2023-04-29T11:34:51;18.70;53.40
43884;DHT22;29544;52.018;5.810;2023-04-29T11:37:24;18.80;53.70
43884;DHT22;29544;52.018;5.810;2023-04-29T11:39:50;18.80;53.70
43884;DHT22;29544;52.018;5.810;2023-04-29T11:42:22;18.80;53.60
43884;DHT22;29544;52.018;5.810;2023-04-29T11:44:51;18.80;53.50
43884;DHT22;29544;52.018;5.810;2023-04-29T11:47:18;18.90;53.50
43884;DHT22;29544;52.018;5.810;2023-04-29T11:49:45;18.90;53.40
43884;DHT22;29544;52.018;5.810;2023-04-29T11:52:11;18.80;53.20
43884;DHT22;29544;52.018;5.810;2023-04-29T11:54:39;18.80;53.10
43884;DHT22;29544;52.018;5.810;2023-04-29T11:57:05;18.80;53.00
43884;DHT22;29544;52.018;5.810;2023-04-29T11:59:31;18.80;52.90
43884;DHT22;29544;52.018;5.810;2023-04-29T12:01:57;18.80;52.80
43884;DHT22;29544;52.018;5.810;2023-04-29T12:04:26;18.80;52.80
43884;DHT22;29544;52.018;5.810;2023-04-29T12:06:51;18.80;52.70
43884;DHT22;29544;52.018;5.810;2023-04-29T12:09:17;18.80;52.60
43884;DHT22;29544;52.018;5.810;2023-04-29T12:11:44;18.80;52.50
43884;DHT22;29544;52.018;5.810;2023-04-29T12:14:12;18.80;52.50
43884;DHT22;29544;52.018;5.810;2023-04-29T12:16:38;18.70;52.40
43884;DHT22;29544;52.018;5.810;2023-04-29T12:19:04;18.70;52.50
43884;DHT22;29544;52.018;5.810;2023-04-29T12:21:30;18.80;52.80
43884;DHT22;29544;52.018;5.810;2023-04-29T12:23:58;18.80;52.70
43884;DHT22;29544;52.018;5.810;2023-04-29T12:26:27;18.80;52.50
43884;DHT22;29544;52.018;5.810;2023-04-29T12:28:53;18.80;52.50
43884;DHT22;29544;52.018;5.810;2023-04-29T12:31:19;18.80;52.50
43884;DHT22;29544;52.018;5.810;2023-04-29T12:33:45;18.80;52.30
43884;DHT22;29544;52.018;5.810;2023-04-29T12:36:18;18.70;52.30
43884;DHT22;29544;52.018;5.810;2023-04-29T12:38:44;18.80;52.30
43884;DHT22;29544;52.018;5.810;2023-04-29T12:41:10;18.70;52.20
43884;DHT22;29544;52.018;5.810;2023-04-29T12:43:37;18.70;52.20
43884;DHT22;29544;52.018;5.810;2023-04-29T12:46:07;18.70;52.10
43884;DHT22;29544;52.018;5.810;2023-04-29T12:48:34;18.80;52.20
43884;DHT22;29544;52.018;5.810;2023-04-29T12:51:02;18.80;52.20
43884;DHT22;29544;52.018;5.810;2023-04-29T12:53:29;18.80;52.10
43884;DHT22;29544;52.018;5.810;2023-04-29T12:55:55;18.80;52.20
43884;DHT22;29544;52.018;5.810;2023-04-29T12:58:21;18.90;52.20
43884;DHT22;29544;52.018;5.810;2023-04-29T13:00:46;18.90;52.10
43884;DHT22;29544;52.018;5.810;2023-04-29T13:03:12;18.80;52.00
43884;DHT22;29544;52.018;5.810;2023-04-29T13:05:37;18.80;52.00
43884;DHT22;29544;52.018;5.810;2023-04-29T13:08:03;18.80;51.90
43884;DHT22;29544;52.018;5.810;2023-04-29T13:10:32;18.80;51.90
43884;DHT22;29544;52.018;5.810;2023-04-29T13:12:58;18.80;51.90
43884;DHT22;29544;52.018;5.810;2023-04-29T13:15:24;18.90;52.00
43884;DHT22;29544;52.018;5.810;2023-04-29T13:17:51;18.90;52.00
43884;DHT22;29544;52.018;5.810;2023-04-29T13:20:16;18.90;52.00
43884;DHT22;29544;52.018;5.810;2023-04-29T13:22:42;18.90;52.00
43884;DHT22;29544;52.018;5.810;2023-04-29T13:25:09;18.90;52.00
43884;DHT22;29544;52.018;5.810;2023-04-29T13:27:35;18.90;51.90
43884;DHT22;29544;52.018;5.810;2023-04-29T13:30:00;18.90;51.80
43884;DHT22;29544;52.018;5.810;2023-04-29T13:32:26;18.90;51.70
43884;DHT22;29544;52.018;5.810;2023-04-29T13:34:52;18.90;51.60
43884;DHT22;29544;52.018;5.810;2023-04-29T13:37:18;18.90;51.70
43884;DHT22;29544;52.018;5.810;2023-04-29T13:39:44;18.90;51.60
43884;DHT22;29544;52.018;5.810;2023-04-29T13:42:10;18.90;51.50
43884;DHT22;29544;52.018;5.810;2023-04-29T13:44:35;18.90;51.40
43884;DHT22;29544;52.018;5.810;2023-04-29T13:47:02;18.90;51.50
43884;DHT22;29544;52.018;5.810;2023-04-29T13:49:28;18.90;51.50
43884;DHT22;29544;52.018;5.810;2023-04-29T13:51:54;18.90;51.40
43884;DHT22;29544;52.018;5.810;2023-04-29T13:54:19;18.90;51.40
43884;DHT22;29544;52.018;5.810;2023-04-29T13:56:46;18.90;51.40
43884;DHT22;29544;52.018;5.810;2023-04-29T13:59:12;18.90;51.50
43884;DHT22;29544;52.018;5.810;2023-04-29T14:01:38;18.90;51.40
43884;DHT22;29544;52.018;5.810;2023-04-29T14:04:03;18.90;51.30
43884;DHT22;29544;52.018;5.810;2023-04-29T14:06:29;18.90;51.30
43884;DHT22;29544;52.018;5.810;2023-04-29T14:08:57;18.90;51.20
43884;DHT22;29544;52.018;5.810;2023-04-29T14:11:23;18.90;51.20
43884;DHT22;29544;52.018;5.810;2023-04-29T14:13:48;18.90;51.80
43884;DHT22;29544;52.018;5.810;2023-04-29T14:16:14;18.90;51.80
43884;DHT22;29544;52.018;5.810;2023-04-29T14:18:41;18.90;51.70
43884;DHT22;29544;52.018;5.810;2023-04-29T14:21:06;18.90;51.60
43884;DHT22;29544;52.018;5.810;2023-04-29T14:23:32;18.90;51.50
43884;DHT22;29544;52.018;5.810;2023-04-29T14:25:57;18.90;51.40
43884;DHT22;29544;52.018;5.810;2023-04-29T14:28:23;18.90;51.50
43884;DHT22;29544;52.018;5.810;2023-04-29T14:30:48;18.80;51.40
43884;DHT22;29544;52.018;5.810;2023-04-29T14:33:14;18.80;51.30
43884;DHT22;29544;52.018;5.810;2023-04-29T14:35:40;18.80;51.30
43884;DHT22;29544;52.018;5.810;2023-04-29T14:38:05;18.80;51.30
43884;DHT22;29544;52.018;5.810;2023-04-29T14:40:31;18.80;51.30
43884;DHT22;29544;52.018;5.810;2023-04-29T14:42:56;18.80;51.30
43884;DHT22;29544;52.018;5.810;2023-04-29T14:45:22;18.80;51.30
43884;DHT22;29544;52.018;5.810;2023-04-29T14:47:47;18.70;51.10
43884;DHT22;29544;52.018;5.810;2023-04-29T14:50:13;18.80;51.30
43884;DHT22;29544;52.018;5.810;2023-04-29T14:52:38;18.90;51.60
43884;DHT22;29544;52.018;5.810;2023-04-29T14:55:04;18.90;51.50
43884;DHT22;29544;52.018;5.810;2023-04-29T14:57:30;18.90;51.60
43884;DHT22;29544;52.018;5.810;2023-04-29T14:59:55;19.00;51.60
43884;DHT22;29544;52.018;5.810;2023-04-29T15:02:21;19.00;51.50
43884;DHT22;29544;52.018;5.810;2023-04-29T15:04:46;19.00;51.30
43884;DHT22;29544;52.018;5.810;2023-04-29T15:07:13;18.90;51.30
43884;DHT22;29544;52.018;5.810;2023-04-29T15:09:40;18.90;51.30
43884;DHT22;29544;52.018;5.810;2023-04-29T15:12:06;18.90;51.70
43884;DHT22;29544;52.018;5.810;2023-04-29T15:14:32;18.90;51.10
43884;DHT22;29544;52.018;5.810;2023-04-29T15:16:58;18.90;51.10
43884;DHT22;29544;52.018;5.810;2023-04-29T15:19:24;18.90;51.10
43884;DHT22;29544;52.018;5.810;2023-04-29T15:21:50;18.90;51.10
43884;DHT22;29544;52.018;5.810;2023-04-29T15:24:17;18.90;51.30
43884;DHT22;29544;52.018;5.810;2023-04-29T15:26:42;19.00;51.50
43884;DHT22;29544;52.018;5.810;2023-04-29T15:29:08;19.00;51.50
43884;DHT22;29544;52.018;5.810;2023-04-29T15:31:34;19.00;51.50
43884;DHT22;29544;52.018;5.810;2023-04-29T15:33:59;19.00;51.50
43884;DHT22;29544;52.018;5.810;2023-04-29T15:36:29;18.90;51.20
43884;DHT22;29544;52.018;5.810;2023-04-29T15:38:56;18.90;51.40
43884;DHT22;29544;52.018;5.810;2023-04-29T15:41:22;19.00;51.70
43884;DHT22;29544;52.018;5.810;2023-04-29T15:43:50;19.00;51.90
43884;DHT22;29544;52.018;5.810;2023-04-29T15:46:16;19.00;52.00